sensor_id;sensor_type;location;lat;lon;timestamp;P1;durP1;ratioP1;P2;durP2;ratioP2
55732;SDS011;41637;52.364;9.910;2023-03-12T00:00:07;6.20;;;1.60;;
55732;SDS011;41637;52.364;9.910;2023-03-12T00:02:36;4.50;;;1.60;;
55732;SDS011;41637;52.364;9.910;2023-03-12T00:05:03;4.50;;;1.60;;
55732;SDS011;41637;52.364;9.910;2023-03-12T00:07:33;3.10;;;1.50;;
55732;SDS011;41637;52.364;9.910;2023-03-12T00:10:03;6.30;;;1.80;;
55732;SDS011;41637;52.364;9.910;2023-03-12T00:12:30;5.40;;;1.80;;
55732;SDS011;41637;52.364;9.910;2023-03-12T00:14:59;4.70;;;1.60;;
55732;SDS011;41637;52.364;9.910;2023-03-12T00:17:27;4.10;;;1.70;;
55732;SDS011;41637;52.364;9.910;2023-03-12T00:19:55;6.40;;;1.80;;
55732;SDS011;41637;52.364;9.910;2023-03-12T00:22:24;5.00;;;1.50;;
55732;SDS011;41637;52.364;9.910;2023-03-12T00:24:55;4.00;;;1.70;;
55732;SDS011;41637;52.364;9.910;2023-03-12T00:27:22;4.20;;;1.80;;
55732;SDS011;41637;52.364;9.910;2023-03-12T00:29:50;4.30;;;1.60;;
55732;SDS011;41637;52.364;9.910;2023-03-12T00:32:18;5.80;;;1.70;;
55732;SDS011;41637;52.364;9.910;2023-03-12T00:34:52;6.50;;;1.90;;
55732;SDS011;41637;52.364;9.910;2023-03-12T00:37:20;3.30;;;1.90;;
55732;SDS011;41637;52.364;9.910;2023-03-12T00:39:47;6.30;;;1.90;;
55732;SDS011;41637;52.364;9.910;2023-03-12T00:42:14;3.50;;;1.60;;
55732;SDS011;41637;52.364;9.910;2023-03-12T00:44:44;4.20;;;1.70;;
55732;SDS011;41637;52.364;9.910;2023-03-12T00:47:11;4.40;;;1.50;;
55732;SDS011;41637;52.364;9.910;2023-03-12T00:49:43;4.50;;;1.70;;
55732;SDS011;41637;52.364;9.910;2023-03-12T00:52:11;6.00;;;1.70;;
55732;SDS011;41637;52.364;9.910;2023-03-12T00:54:38;4.30;;;1.70;;
55732;SDS011;41637;52.364;9.910;2023-03-12T00:57:05;5.60;;;1.80;;
55732;SDS011;41637;52.364;9.910;2023-03-12T00:59:37;3.80;;;1.20;;
55732;SDS011;41637;52.364;9.910;2023-03-12T01:02:06;4.70;;;1.80;;
55732;SDS011;41637;52.364;9.910;2023-03-12T01:04:34;4.10;;;2.10;;
55732;SDS011;41637;52.364;9.910;2023-03-12T01:07:10;5.70;;;2.00;;
55732;SDS011;41637;52.364;9.910;2023-03-12T01:09:37;3.10;;;1.50;;
55732;SDS011;41637;52.364;9.910;2023-03-12T01:12:04;5.70;;;2.10;;
55732;SDS011;41637;52.364;9.910;2023-03-12T01:14:31;7.10;;;1.90;;
55732;SDS011;41637;52.364;9.910;2023-03-12T01:16:58;4.00;;;1.40;;
55732;SDS011;41637;52.364;9.910;2023-03-12T01:19:26;4.90;;;2.00;;
55732;SDS011;41637;52.364;9.910;2023-03-12T01:21:52;4.10;;;1.80;;
55732;SDS011;41637;52.364;9.910;2023-03-12T01:24:21;4.30;;;2.00;;
55732;SDS011;41637;52.364;9.910;2023-03-12T01:26:48;4.40;;;2.20;;
55732;SDS011;41637;52.364;9.910;2023-03-12T01:29:15;5.80;;;1.90;;
55732;SDS011;41637;52.364;9.910;2023-03-12T01:31:45;4.60;;;1.90;;
55732;SDS011;41637;52.364;9.910;2023-03-12T01:34:13;4.40;;;2.10;;
55732;SDS011;41637;52.364;9.910;2023-03-12T01:36:40;5.50;;;2.30;;
55732;SDS011;41637;52.364;9.910;2023-03-12T01:39:06;5.60;;;2.10;;
55732;SDS011;41637;52.364;9.910;2023-03-12T01:41:33;4.60;;;2.00;;
55732;SDS011;41637;52.364;9.910;2023-03-12T01:44:00;6.00;;;2.00;;
55732;SDS011;41637;52.364;9.910;2023-03-12T01:46:39;5.90;;;2.20;;
55732;SDS011;41637;52.364;9.910;2023-03-12T01:51:58;5.60;;;2.30;;
55732;SDS011;41637;52.364;9.910;2023-03-12T01:54:32;6.10;;;2.20;;
55732;SDS011;41637;52.364;9.910;2023-03-12T01:57:03;6.10;;;2.10;;
55732;SDS011;41637;52.364;9.910;2023-03-12T01:59:38;6.10;;;2.20;;
55732;SDS011;41637;52.364;9.910;2023-03-12T02:02:10;3.70;;;2.10;;
55732;SDS011;41637;52.364;9.910;2023-03-12T02:04:39;6.10;;;2.20;;
55732;SDS011;41637;52.364;9.910;2023-03-12T02:07:10;5.60;;;2.10;;
55732;SDS011;41637;52.364;9.910;2023-03-12T02:09:41;6.50;;;2.40;;
55732;SDS011;41637;52.364;9.910;2023-03-12T02:12:11;4.60;;;2.30;;
55732;SDS011;41637;52.364;9.910;2023-03-12T02:14:38;6.30;;;2.40;;
55732;SDS011;41637;52.364;9.910;2023-03-12T02:17:05;5.30;;;2.00;;
55732;SDS011;41637;52.364;9.910;2023-03-12T02:22:03;6.00;;;2.40;;
55732;SDS011;41637;52.364;9.910;2023-03-12T02:24:34;4.60;;;2.40;;
55732;SDS011;41637;52.364;9.910;2023-03-12T02:27:08;6.20;;;2.40;;
55732;SDS011;41637;52.364;9.910;2023-03-12T02:29:37;5.80;;;2.10;;
55732;SDS011;41637;52.364;9.910;2023-03-12T02:32:07;7.00;;;2.60;;
55732;SDS011;41637;52.364;9.910;2023-03-12T02:34:41;7.00;;;2.50;;
55732;SDS011;41637;52.364;9.910;2023-03-12T02:37:08;6.10;;;2.00;;
55732;SDS011;41637;52.364;9.910;2023-03-12T02:39:38;5.90;;;2.20;;
55732;SDS011;41637;52.364;9.910;2023-03-12T02:42:06;5.20;;;1.90;;
55732;SDS011;41637;52.364;9.910;2023-03-12T02:44:33;5.60;;;2.30;;
55732;SDS011;41637;52.364;9.910;2023-03-12T02:47:01;5.60;;;2.30;;
55732;SDS011;41637;52.364;9.910;2023-03-12T02:49:32;6.30;;;2.50;;
55732;SDS011;41637;52.364;9.910;2023-03-12T02:52:02;5.00;;;2.40;;
55732;SDS011;41637;52.364;9.910;2023-03-12T02:54:32;5.30;;;2.30;;
55732;SDS011;41637;52.364;9.910;2023-03-12T02:56:59;5.40;;;2.30;;
55732;SDS011;41637;52.364;9.910;2023-03-12T02:59:26;5.10;;;2.50;;
55732;SDS011;41637;52.364;9.910;2023-03-12T03:01:54;4.80;;;2.30;;
55732;SDS011;41637;52.364;9.910;2023-03-12T03:04:23;6.40;;;2.70;;
55732;SDS011;41637;52.364;9.910;2023-03-12T03:06:51;5.10;;;2.10;;
55732;SDS011;41637;52.364;9.910;2023-03-12T03:09:19;5.70;;;2.70;;
55732;SDS011;41637;52.364;9.910;2023-03-12T03:11:48;7.50;;;2.70;;
55732;SDS011;41637;52.364;9.910;2023-03-12T03:14:16;6.30;;;2.50;;
55732;SDS011;41637;52.364;9.910;2023-03-12T03:16:44;4.60;;;2.40;;
55732;SDS011;41637;52.364;9.910;2023-03-12T03:19:10;5.90;;;2.40;;
55732;SDS011;41637;52.364;9.910;2023-03-12T03:21:38;5.70;;;2.50;;
55732;SDS011;41637;52.364;9.910;2023-03-12T03:24:05;6.90;;;2.60;;
55732;SDS011;41637;52.364;9.910;2023-03-12T03:26:32;5.10;;;2.30;;
55732;SDS011;41637;52.364;9.910;2023-03-12T03:28:59;5.40;;;2.30;;
55732;SDS011;41637;52.364;9.910;2023-03-12T03:31:26;5.20;;;2.20;;
55732;SDS011;41637;52.364;9.910;2023-03-12T03:33:53;4.80;;;2.60;;
55732;SDS011;41637;52.364;9.910;2023-03-12T03:36:20;5.10;;;2.20;;
55732;SDS011;41637;52.364;9.910;2023-03-12T03:38:54;6.80;;;2.20;;
55732;SDS011;41637;52.364;9.910;2023-03-12T03:41:21;6.40;;;2.10;;
55732;SDS011;41637;52.364;9.910;2023-03-12T03:43:48;5.10;;;2.20;;
55732;SDS011;41637;52.364;9.910;2023-03-12T03:46:15;4.70;;;2.40;;
55732;SDS011;41637;52.364;9.910;2023-03-12T03:48:42;6.40;;;2.50;;
55732;SDS011;41637;52.364;9.910;2023-03-12T03:51:12;6.70;;;2.30;;
55732;SDS011;41637;52.364;9.910;2023-03-12T03:53:39;6.70;;;2.40;;
55732;SDS011;41637;52.364;9.910;2023-03-12T03:56:07;5.50;;;2.20;;
55732;SDS011;41637;52.364;9.910;2023-03-12T03:58:36;6.10;;;2.50;;
55732;SDS011;41637;52.364;9.910;2023-03-12T04:01:03;3.80;;;2.20;;
55732;SDS011;41637;52.364;9.910;2023-03-12T04:03:32;5.10;;;2.20;;
55732;SDS011;41637;52.364;9.910;2023-03-12T04:06:01;7.20;;;2.60;;
55732;SDS011;41637;52.364;9.910;2023-03-12T04:08:31;5.50;;;2.50;;
55732;SDS011;41637;52.364;9.910;2023-03-12T04:11:07;5.40;;;2.20;;
55732;SDS011;41637;52.364;9.910;2023-03-12T04:13:36;6.50;;;2.50;;
55732;SDS011;41637;52.364;9.910;2023-03-12T04:16:04;6.60;;;2.50;;
55732;SDS011;41637;52.364;9.910;2023-03-12T04:18:31;4.60;;;2.10;;
55732;SDS011;41637;52.364;9.910;2023-03-12T04:20:58;4.20;;;2.20;;
55732;SDS011;41637;52.364;9.910;2023-03-12T04:23:25;5.00;;;2.10;;
55732;SDS011;41637;52.364;9.910;2023-03-12T04:25:52;5.60;;;2.40;;
55732;SDS011;41637;52.364;9.910;2023-03-12T04:28:19;4.90;;;2.30;;
55732;SDS011;41637;52.364;9.910;2023-03-12T04:30:52;5.80;;;2.40;;
55732;SDS011;41637;52.364;9.910;2023-03-12T04:33:28;4.30;;;2.30;;
55732;SDS011;41637;52.364;9.910;2023-03-12T04:35:56;5.20;;;2.30;;
55732;SDS011;41637;52.364;9.910;2023-03-12T04:38:29;6.00;;;2.30;;
55732;SDS011;41637;52.364;9.910;2023-03-12T04:41:03;5.10;;;2.20;;
55732;SDS011;41637;52.364;9.910;2023-03-12T04:43:35;4.50;;;2.60;;
55732;SDS011;41637;52.364;9.910;2023-03-12T04:46:02;4.50;;;2.70;;
55732;SDS011;41637;52.364;9.910;2023-03-12T04:48:30;6.90;;;2.60;;
55732;SDS011;41637;52.364;9.910;2023-03-12T04:50:57;6.40;;;2.40;;
55732;SDS011;41637;52.364;9.910;2023-03-12T04:53:24;5.20;;;2.70;;
55732;SDS011;41637;52.364;9.910;2023-03-12T04:55:52;4.60;;;2.20;;
55732;SDS011;41637;52.364;9.910;2023-03-12T04:58:19;5.90;;;2.20;;
55732;SDS011;41637;52.364;9.910;2023-03-12T05:00:47;5.70;;;2.20;;
55732;SDS011;41637;52.364;9.910;2023-03-12T05:03:18;4.80;;;2.30;;
55732;SDS011;41637;52.364;9.910;2023-03-12T05:05:45;6.00;;;2.30;;
55732;SDS011;41637;52.364;9.910;2023-03-12T05:08:12;6.00;;;2.40;;
55732;SDS011;41637;52.364;9.910;2023-03-12T05:10:39;4.90;;;2.70;;
55732;SDS011;41637;52.364;9.910;2023-03-12T05:13:15;5.10;;;2.40;;
55732;SDS011;41637;52.364;9.910;2023-03-12T05:15:46;5.50;;;2.30;;
55732;SDS011;41637;52.364;9.910;2023-03-12T05:18:16;4.20;;;2.40;;
55732;SDS011;41637;52.364;9.910;2023-03-12T05:21:07;4.50;;;2.30;;
55732;SDS011;41637;52.364;9.910;2023-03-12T05:23:34;6.00;;;2.50;;
55732;SDS011;41637;52.364;9.910;2023-03-12T05:26:01;5.00;;;2.10;;
55732;SDS011;41637;52.364;9.910;2023-03-12T05:28:28;6.00;;;2.40;;
55732;SDS011;41637;52.364;9.910;2023-03-12T05:30:55;5.40;;;2.30;;
55732;SDS011;41637;52.364;9.910;2023-03-12T05:33:24;5.10;;;2.00;;
55732;SDS011;41637;52.364;9.910;2023-03-12T05:35:52;5.30;;;2.10;;
55732;SDS011;41637;52.364;9.910;2023-03-12T05:38:23;5.40;;;2.20;;
55732;SDS011;41637;52.364;9.910;2023-03-12T05:40:50;4.90;;;2.10;;
55732;SDS011;41637;52.364;9.910;2023-03-12T05:43:21;6.20;;;2.50;;
55732;SDS011;41637;52.364;9.910;2023-03-12T05:45:49;7.90;;;2.50;;
55732;SDS011;41637;52.364;9.910;2023-03-12T05:48:17;5.70;;;2.10;;
55732;SDS011;41637;52.364;9.910;2023-03-12T05:50:44;4.10;;;2.10;;
55732;SDS011;41637;52.364;9.910;2023-03-12T05:53:10;4.20;;;2.00;;
55732;SDS011;41637;52.364;9.910;2023-03-12T05:55:38;4.10;;;2.00;;
55732;SDS011;41637;52.364;9.910;2023-03-12T05:58:05;5.80;;;2.30;;
55732;SDS011;41637;52.364;9.910;2023-03-12T06:00:33;4.50;;;2.00;;
55732;SDS011;41637;52.364;9.910;2023-03-12T06:03:03;5.10;;;2.30;;
55732;SDS011;41637;52.364;9.910;2023-03-12T06:05:32;4.70;;;1.90;;
55732;SDS011;41637;52.364;9.910;2023-03-12T06:08:00;5.10;;;2.10;;
55732;SDS011;41637;52.364;9.910;2023-03-12T06:10:28;5.70;;;2.30;;
55732;SDS011;41637;52.364;9.910;2023-03-12T06:12:55;4.70;;;2.40;;
55732;SDS011;41637;52.364;9.910;2023-03-12T06:15:23;4.20;;;2.10;;
55732;SDS011;41637;52.364;9.910;2023-03-12T06:17:50;4.40;;;2.20;;
55732;SDS011;41637;52.364;9.910;2023-03-12T06:20:17;6.30;;;2.10;;
55732;SDS011;41637;52.364;9.910;2023-03-12T06:22:44;5.40;;;2.10;;
55732;SDS011;41637;52.364;9.910;2023-03-12T06:25:10;4.80;;;2.30;;
55732;SDS011;41637;52.364;9.910;2023-03-12T06:27:37;4.30;;;2.10;;
55732;SDS011;41637;52.364;9.910;2023-03-12T06:30:07;4.10;;;2.20;;
55732;SDS011;41637;52.364;9.910;2023-03-12T06:32:37;5.40;;;2.30;;
55732;SDS011;41637;52.364;9.910;2023-03-12T06:35:04;5.60;;;2.50;;
55732;SDS011;41637;52.364;9.910;2023-03-12T06:37:31;4.70;;;2.30;;
55732;SDS011;41637;52.364;9.910;2023-03-12T06:39:58;6.10;;;2.40;;
55732;SDS011;41637;52.364;9.910;2023-03-12T06:42:27;5.20;;;2.70;;
55732;SDS011;41637;52.364;9.910;2023-03-12T06:44:53;4.60;;;2.50;;
55732;SDS011;41637;52.364;9.910;2023-03-12T06:47:23;5.60;;;3.00;;
55732;SDS011;41637;52.364;9.910;2023-03-12T06:49:50;4.70;;;2.50;;
55732;SDS011;41637;52.364;9.910;2023-03-12T06:52:17;4.30;;;2.10;;
55732;SDS011;41637;52.364;9.910;2023-03-12T06:54:47;5.50;;;2.20;;
55732;SDS011;41637;52.364;9.910;2023-03-12T06:57:14;4.90;;;2.40;;
55732;SDS011;41637;52.364;9.910;2023-03-12T06:59:41;3.90;;;2.10;;
55732;SDS011;41637;52.364;9.910;2023-03-12T07:02:09;6.30;;;2.70;;
55732;SDS011;41637;52.364;9.910;2023-03-12T07:04:37;4.80;;;2.40;;
55732;SDS011;41637;52.364;9.910;2023-03-12T07:07:04;5.80;;;2.70;;
55732;SDS011;41637;52.364;9.910;2023-03-12T07:09:35;5.40;;;2.80;;
55732;SDS011;41637;52.364;9.910;2023-03-12T07:12:02;5.20;;;2.70;;
55732;SDS011;41637;52.364;9.910;2023-03-12T07:14:29;6.10;;;3.10;;
55732;SDS011;41637;52.364;9.910;2023-03-12T07:16:56;7.80;;;2.60;;
55732;SDS011;41637;52.364;9.910;2023-03-12T07:19:27;6.30;;;2.80;;
55732;SDS011;41637;52.364;9.910;2023-03-12T07:21:55;5.20;;;2.60;;
55732;SDS011;41637;52.364;9.910;2023-03-12T07:24:23;5.10;;;2.90;;
55732;SDS011;41637;52.364;9.910;2023-03-12T07:26:50;7.30;;;2.60;;
55732;SDS011;41637;52.364;9.910;2023-03-12T07:29:17;5.50;;;2.50;;
55732;SDS011;41637;52.364;9.910;2023-03-12T07:31:43;6.20;;;2.60;;
55732;SDS011;41637;52.364;9.910;2023-03-12T07:34:10;4.00;;;2.80;;
55732;SDS011;41637;52.364;9.910;2023-03-12T07:36:37;7.60;;;3.00;;
55732;SDS011;41637;52.364;9.910;2023-03-12T07:39:05;4.80;;;2.70;;
55732;SDS011;41637;52.364;9.910;2023-03-12T07:41:32;6.80;;;2.70;;
55732;SDS011;41637;52.364;9.910;2023-03-12T07:44:00;3.70;;;2.30;;
55732;SDS011;41637;52.364;9.910;2023-03-12T07:46:27;6.30;;;2.20;;
55732;SDS011;41637;52.364;9.910;2023-03-12T07:48:54;5.70;;;2.50;;
55732;SDS011;41637;52.364;9.910;2023-03-12T07:51:20;5.40;;;2.30;;
55732;SDS011;41637;52.364;9.910;2023-03-12T07:53:47;4.30;;;2.00;;
55732;SDS011;41637;52.364;9.910;2023-03-12T07:56:14;5.20;;;2.20;;
55732;SDS011;41637;52.364;9.910;2023-03-12T07:58:44;6.00;;;2.30;;
55732;SDS011;41637;52.364;9.910;2023-03-12T08:01:11;4.80;;;2.40;;
55732;SDS011;41637;52.364;9.910;2023-03-12T08:03:38;3.90;;;2.30;;
55732;SDS011;41637;52.364;9.910;2023-03-12T08:06:05;4.40;;;2.50;;
55732;SDS011;41637;52.364;9.910;2023-03-12T08:08:32;3.90;;;1.80;;
55732;SDS011;41637;52.364;9.910;2023-03-12T08:11:02;4.80;;;2.40;;
55732;SDS011;41637;52.364;9.910;2023-03-12T08:13:30;3.90;;;2.00;;
55732;SDS011;41637;52.364;9.910;2023-03-12T08:15:56;4.40;;;2.00;;
55732;SDS011;41637;52.364;9.910;2023-03-12T08:18:23;5.50;;;2.20;;
55732;SDS011;41637;52.364;9.910;2023-03-12T08:20:52;4.20;;;2.00;;
55732;SDS011;41637;52.364;9.910;2023-03-12T08:23:20;4.10;;;2.00;;
55732;SDS011;41637;52.364;9.910;2023-03-12T08:25:48;7.00;;;2.30;;
55732;SDS011;41637;52.364;9.910;2023-03-12T08:28:16;5.30;;;2.60;;
55732;SDS011;41637;52.364;9.910;2023-03-12T08:30:47;4.20;;;2.20;;
55732;SDS011;41637;52.364;9.910;2023-03-12T08:33:15;4.80;;;2.30;;
55732;SDS011;41637;52.364;9.910;2023-03-12T08:35:42;5.70;;;2.30;;
55732;SDS011;41637;52.364;9.910;2023-03-12T08:38:09;5.80;;;2.20;;
55732;SDS011;41637;52.364;9.910;2023-03-12T08:40:36;5.10;;;2.10;;
55732;SDS011;41637;52.364;9.910;2023-03-12T08:43:03;5.40;;;2.30;;
55732;SDS011;41637;52.364;9.910;2023-03-12T08:45:30;4.60;;;1.80;;
55732;SDS011;41637;52.364;9.910;2023-03-12T08:47:57;4.00;;;1.50;;
55732;SDS011;41637;52.364;9.910;2023-03-12T08:50:27;4.80;;;2.00;;
55732;SDS011;41637;52.364;9.910;2023-03-12T08:52:59;4.20;;;1.60;;
55732;SDS011;41637;52.364;9.910;2023-03-12T08:55:26;4.60;;;1.80;;
55732;SDS011;41637;52.364;9.910;2023-03-12T08:57:56;3.90;;;1.60;;
55732;SDS011;41637;52.364;9.910;2023-03-12T09:00:22;5.10;;;2.10;;
55732;SDS011;41637;52.364;9.910;2023-03-12T09:02:50;4.00;;;1.80;;
55732;SDS011;41637;52.364;9.910;2023-03-12T09:05:18;6.20;;;1.90;;
55732;SDS011;41637;52.364;9.910;2023-03-12T09:07:46;4.70;;;1.80;;
55732;SDS011;41637;52.364;9.910;2023-03-12T09:10:12;4.10;;;1.90;;
55732;SDS011;41637;52.364;9.910;2023-03-12T09:12:39;3.60;;;1.70;;
55732;SDS011;41637;52.364;9.910;2023-03-12T09:15:09;3.40;;;1.60;;
55732;SDS011;41637;52.364;9.910;2023-03-12T09:17:36;5.00;;;1.70;;
55732;SDS011;41637;52.364;9.910;2023-03-12T09:20:05;4.30;;;1.90;;
55732;SDS011;41637;52.364;9.910;2023-03-12T09:22:34;4.70;;;2.00;;
55732;SDS011;41637;52.364;9.910;2023-03-12T09:25:05;4.60;;;1.50;;
55732;SDS011;41637;52.364;9.910;2023-03-12T09:27:34;4.40;;;1.70;;
55732;SDS011;41637;52.364;9.910;2023-03-12T09:30:02;5.20;;;2.10;;
55732;SDS011;41637;52.364;9.910;2023-03-12T09:32:31;5.80;;;2.30;;
55732;SDS011;41637;52.364;9.910;2023-03-12T09:34:58;6.30;;;2.70;;
55732;SDS011;41637;52.364;9.910;2023-03-12T09:37:25;4.50;;;1.90;;
55732;SDS011;41637;52.364;9.910;2023-03-12T09:39:52;4.90;;;1.60;;
55732;SDS011;41637;52.364;9.910;2023-03-12T09:46:18;3.80;;;1.60;;
55732;SDS011;41637;52.364;9.910;2023-03-12T09:49:20;4.90;;;1.80;;
55732;SDS011;41637;52.364;9.910;2023-03-12T09:51:54;4.50;;;1.60;;
55732;SDS011;41637;52.364;9.910;2023-03-12T09:54:27;5.90;;;1.70;;
55732;SDS011;41637;52.364;9.910;2023-03-12T09:57:19;4.10;;;1.40;;
55732;SDS011;41637;52.364;9.910;2023-03-12T09:59:49;5.90;;;1.60;;
55732;SDS011;41637;52.364;9.910;2023-03-12T10:05:25;4.10;;;1.30;;
55732;SDS011;41637;52.364;9.910;2023-03-12T10:08:03;6.80;;;1.70;;
55732;SDS011;41637;52.364;9.910;2023-03-12T10:10:54;5.10;;;1.50;;
55732;SDS011;41637;52.364;9.910;2023-03-12T10:27:26;8.10;;;2.00;;
55732;SDS011;41637;52.364;9.910;2023-03-12T10:29:55;4.30;;;1.60;;
55732;SDS011;41637;52.364;9.910;2023-03-12T10:32:29;4.50;;;1.50;;
55732;SDS011;41637;52.364;9.910;2023-03-12T10:35:13;2.80;;;1.20;;
55732;SDS011;41637;52.364;9.910;2023-03-12T10:37:44;3.30;;;1.30;;
55732;SDS011;41637;52.364;9.910;2023-03-12T10:40:19;3.40;;;1.30;;
55732;SDS011;41637;52.364;9.910;2023-03-12T10:42:50;3.50;;;1.40;;
55732;SDS011;41637;52.364;9.910;2023-03-12T10:45:29;3.30;;;1.30;;
55732;SDS011;41637;52.364;9.910;2023-03-12T10:48:05;3.20;;;1.40;;
55732;SDS011;41637;52.364;9.910;2023-03-12T10:50:35;4.50;;;1.60;;
55732;SDS011;41637;52.364;9.910;2023-03-12T10:53:13;4.70;;;1.40;;
55732;SDS011;41637;52.364;9.910;2023-03-12T10:56:01;4.60;;;1.50;;
55732;SDS011;41637;52.364;9.910;2023-03-12T10:58:38;4.20;;;1.50;;
55732;SDS011;41637;52.364;9.910;2023-03-12T11:01:23;4.00;;;1.50;;
55732;SDS011;41637;52.364;9.910;2023-03-12T11:03:52;3.50;;;1.40;;
55732;SDS011;41637;52.364;9.910;2023-03-12T11:06:34;3.80;;;1.50;;
55732;SDS011;41637;52.364;9.910;2023-03-12T11:09:17;3.90;;;1.50;;
55732;SDS011;41637;52.364;9.910;2023-03-12T11:11:45;2.80;;;1.70;;
55732;SDS011;41637;52.364;9.910;2023-03-12T11:14:17;3.80;;;1.40;;
55732;SDS011;41637;52.364;9.910;2023-03-12T11:16:55;3.10;;;1.50;;
55732;SDS011;41637;52.364;9.910;2023-03-12T11:19:41;3.80;;;1.70;;
55732;SDS011;41637;52.364;9.910;2023-03-12T11:22:08;5.60;;;1.60;;
55732;SDS011;41637;52.364;9.910;2023-03-12T11:24:53;6.60;;;1.70;;
55732;SDS011;41637;52.364;9.910;2023-03-12T11:30:04;4.20;;;1.50;;
55732;SDS011;41637;52.364;9.910;2023-03-12T11:32:40;4.80;;;1.50;;
55732;SDS011;41637;52.364;9.910;2023-03-12T11:35:14;3.90;;;1.80;;
55732;SDS011;41637;52.364;9.910;2023-03-12T11:40:47;4.40;;;1.80;;
55732;SDS011;41637;52.364;9.910;2023-03-12T11:46:36;4.40;;;1.70;;
55732;SDS011;41637;52.364;9.910;2023-03-12T11:57:30;6.00;;;1.80;;
55732;SDS011;41637;52.364;9.910;2023-03-12T12:00:15;4.90;;;2.20;;
55732;SDS011;41637;52.364;9.910;2023-03-12T12:17:12;4.90;;;2.10;;
55732;SDS011;41637;52.364;9.910;2023-03-12T12:28:12;6.70;;;2.50;;
55732;SDS011;41637;52.364;9.910;2023-03-12T12:31:09;4.60;;;2.30;;
55732;SDS011;41637;52.364;9.910;2023-03-12T12:33:42;5.50;;;2.30;;
55732;SDS011;41637;52.364;9.910;2023-03-12T12:36:15;5.30;;;2.30;;
55732;SDS011;41637;52.364;9.910;2023-03-12T12:38:46;6.80;;;2.50;;
55732;SDS011;41637;52.364;9.910;2023-03-12T12:43:46;5.20;;;2.30;;
55732;SDS011;41637;52.364;9.910;2023-03-12T12:46:16;6.00;;;2.50;;
55732;SDS011;41637;52.364;9.910;2023-03-12T12:48:53;4.70;;;2.30;;
55732;SDS011;41637;52.364;9.910;2023-03-12T12:51:23;5.10;;;2.40;;
55732;SDS011;41637;52.364;9.910;2023-03-12T12:54:06;4.70;;;2.70;;
55732;SDS011;41637;52.364;9.910;2023-03-12T12:59:29;5.50;;;2.50;;
55732;SDS011;41637;52.364;9.910;2023-03-12T13:02:14;4.50;;;2.70;;
55732;SDS011;41637;52.364;9.910;2023-03-12T13:04:45;5.00;;;2.30;;
55732;SDS011;41637;52.364;9.910;2023-03-12T13:09:50;5.70;;;2.50;;
55732;SDS011;41637;52.364;9.910;2023-03-12T13:12:20;5.10;;;2.50;;
55732;SDS011;41637;52.364;9.910;2023-03-12T13:14:51;4.00;;;2.20;;
55732;SDS011;41637;52.364;9.910;2023-03-12T13:17:31;5.80;;;2.50;;
55732;SDS011;41637;52.364;9.910;2023-03-12T13:22:51;3.90;;;2.60;;
55732;SDS011;41637;52.364;9.910;2023-03-12T13:30:56;5.10;;;2.60;;
55732;SDS011;41637;52.364;9.910;2023-03-12T13:33:39;4.20;;;2.60;;
55732;SDS011;41637;52.364;9.910;2023-03-12T13:38:57;5.10;;;2.80;;
55732;SDS011;41637;52.364;9.910;2023-03-12T13:46:58;4.10;;;2.80;;
55732;SDS011;41637;52.364;9.910;2023-03-12T13:49:34;5.50;;;2.90;;
55732;SDS011;41637;52.364;9.910;2023-03-12T13:52:23;5.00;;;2.70;;
55732;SDS011;41637;52.364;9.910;2023-03-12T14:03:00;4.40;;;2.70;;
55732;SDS011;41637;52.364;9.910;2023-03-12T14:05:43;4.50;;;2.80;;
55732;SDS011;41637;52.364;9.910;2023-03-12T14:16:53;4.60;;;3.70;;
55732;SDS011;41637;52.364;9.910;2023-03-12T14:19:29;4.30;;;3.10;;
55732;SDS011;41637;52.364;9.910;2023-03-12T14:22:01;4.70;;;2.70;;
55732;SDS011;41637;52.364;9.910;2023-03-12T14:24:32;4.40;;;3.10;;
55732;SDS011;41637;52.364;9.910;2023-03-12T14:27:03;4.60;;;2.90;;
55732;SDS011;41637;52.364;9.910;2023-03-12T14:32:21;3.70;;;3.00;;
55732;SDS011;41637;52.364;9.910;2023-03-12T14:35:04;4.00;;;2.80;;
55732;SDS011;41637;52.364;9.910;2023-03-12T14:37:41;5.70;;;3.40;;
55732;SDS011;41637;52.364;9.910;2023-03-12T14:40:21;4.40;;;3.30;;
55732;SDS011;41637;52.364;9.910;2023-03-12T14:42:50;5.10;;;3.50;;
55732;SDS011;41637;52.364;9.910;2023-03-12T14:45:18;5.30;;;3.60;;
55732;SDS011;41637;52.364;9.910;2023-03-12T14:47:56;6.60;;;3.40;;
55732;SDS011;41637;52.364;9.910;2023-03-12T14:50:36;4.30;;;2.90;;
55732;SDS011;41637;52.364;9.910;2023-03-12T14:53:12;5.00;;;3.40;;
55732;SDS011;41637;52.364;9.910;2023-03-12T14:55:45;5.40;;;3.60;;
55732;SDS011;41637;52.364;9.910;2023-03-12T14:58:16;5.10;;;3.60;;
55732;SDS011;41637;52.364;9.910;2023-03-12T15:00:52;5.40;;;3.60;;
55732;SDS011;41637;52.364;9.910;2023-03-12T15:03:28;5.30;;;3.70;;
55732;SDS011;41637;52.364;9.910;2023-03-12T15:05:59;5.30;;;4.10;;
55732;SDS011;41637;52.364;9.910;2023-03-12T15:08:26;4.90;;;3.80;;
55732;SDS011;41637;52.364;9.910;2023-03-12T15:10:56;6.20;;;3.80;;
55732;SDS011;41637;52.364;9.910;2023-03-12T15:13:24;5.60;;;4.10;;
55732;SDS011;41637;52.364;9.910;2023-03-12T15:15:52;5.40;;;4.50;;
55732;SDS011;41637;52.364;9.910;2023-03-12T15:18:22;5.60;;;3.70;;
55732;SDS011;41637;52.364;9.910;2023-03-12T15:20:52;4.70;;;3.90;;
55732;SDS011;41637;52.364;9.910;2023-03-12T15:23:21;5.30;;;3.80;;
55732;SDS011;41637;52.364;9.910;2023-03-12T15:26:12;5.70;;;3.80;;
55732;SDS011;41637;52.364;9.910;2023-03-12T15:28:55;7.00;;;4.30;;
55732;SDS011;41637;52.364;9.910;2023-03-12T15:31:30;6.60;;;4.20;;
55732;SDS011;41637;52.364;9.910;2023-03-12T15:34:11;4.80;;;3.90;;
55732;SDS011;41637;52.364;9.910;2023-03-12T15:36:44;5.80;;;4.40;;
55732;SDS011;41637;52.364;9.910;2023-03-12T15:41:51;5.60;;;4.10;;
55732;SDS011;41637;52.364;9.910;2023-03-12T15:44:21;5.40;;;4.30;;
55732;SDS011;41637;52.364;9.910;2023-03-12T15:46:54;5.20;;;4.30;;
55732;SDS011;41637;52.364;9.910;2023-03-12T15:49:29;5.40;;;4.20;;
55732;SDS011;41637;52.364;9.910;2023-03-12T15:52:03;5.00;;;3.80;;
55732;SDS011;41637;52.364;9.910;2023-03-12T15:54:32;8.10;;;5.40;;
55732;SDS011;41637;52.364;9.910;2023-03-12T15:57:14;7.20;;;4.70;;
55732;SDS011;41637;52.364;9.910;2023-03-12T15:59:49;5.40;;;4.50;;
55732;SDS011;41637;52.364;9.910;2023-03-12T16:02:57;4.80;;;4.30;;
55732;SDS011;41637;52.364;9.910;2023-03-12T16:05:35;5.80;;;4.50;;
55732;SDS011;41637;52.364;9.910;2023-03-12T16:08:20;6.00;;;4.50;;
55732;SDS011;41637;52.364;9.910;2023-03-12T16:10:54;6.10;;;4.40;;
55732;SDS011;41637;52.364;9.910;2023-03-12T16:13:22;7.50;;;5.10;;
55732;SDS011;41637;52.364;9.910;2023-03-12T16:15:56;8.00;;;5.30;;
55732;SDS011;41637;52.364;9.910;2023-03-12T16:18:23;7.00;;;5.60;;
55732;SDS011;41637;52.364;9.910;2023-03-12T16:20:51;9.20;;;6.00;;
55732;SDS011;41637;52.364;9.910;2023-03-12T16:23:18;11.10;;;5.90;;
55732;SDS011;41637;52.364;9.910;2023-03-12T16:25:49;7.70;;;6.30;;
55732;SDS011;41637;52.364;9.910;2023-03-12T16:28:18;9.80;;;6.10;;
55732;SDS011;41637;52.364;9.910;2023-03-12T16:30:46;8.70;;;6.80;;
55732;SDS011;41637;52.364;9.910;2023-03-12T16:33:13;7.70;;;5.90;;
55732;SDS011;41637;52.364;9.910;2023-03-12T16:35:43;9.30;;;6.30;;
55732;SDS011;41637;52.364;9.910;2023-03-12T16:38:10;11.10;;;6.70;;
55732;SDS011;41637;52.364;9.910;2023-03-12T16:40:38;10.10;;;7.00;;
55732;SDS011;41637;52.364;9.910;2023-03-12T16:43:17;10.70;;;7.10;;
55732;SDS011;41637;52.364;9.910;2023-03-12T16:45:49;10.20;;;6.60;;
55732;SDS011;41637;52.364;9.910;2023-03-12T16:48:18;9.20;;;6.60;;
55732;SDS011;41637;52.364;9.910;2023-03-12T16:50:49;9.10;;;6.50;;
55732;SDS011;41637;52.364;9.910;2023-03-12T16:53:18;8.80;;;6.80;;
55732;SDS011;41637;52.364;9.910;2023-03-12T16:55:47;9.50;;;6.70;;
55732;SDS011;41637;52.364;9.910;2023-03-12T16:58:17;8.80;;;6.30;;
55732;SDS011;41637;52.364;9.910;2023-03-12T17:00:51;7.20;;;5.90;;